createdAt,value
2019-02-06T00:02:56.477Z,3.75
2019-02-06T00:06:00.746Z,3.74
2019-02-06T00:09:11.254Z,3.58
2019-02-06T00:12:15.172Z,3.64
2019-02-06T00:15:19.127Z,3.67
2019-02-06T00:18:23.048Z,3.65
2019-02-06T00:21:26.869Z,3.81
2019-02-06T00:24:31.070Z,3.77
2019-02-06T00:27:34.960Z,3.73
2019-02-06T00:30:38.849Z,3.65
2019-02-06T00:33:43.015Z,3.63
2019-02-06T00:36:46.821Z,3.70
2019-02-06T00:39:50.634Z,3.64
2019-02-06T00:42:54.730Z,3.59
2019-02-06T00:45:58.618Z,3.56
2019-02-06T00:49:02.437Z,3.50
2019-02-06T00:52:06.412Z,3.44
2019-02-06T00:55:10.975Z,3.48
2019-02-06T00:58:14.893Z,3.42
2019-02-06T01:01:19.138Z,3.34
2019-02-06T01:04:23.129Z,3.20
2019-02-06T01:07:26.931Z,3.13
2019-02-06T01:10:31.018Z,3.00
2019-02-06T01:13:34.884Z,2.95
2019-02-06T01:16:38.810Z,2.95
2019-02-06T01:19:43.443Z,2.85
2019-02-06T01:22:47.403Z,2.83
2019-02-06T01:25:51.275Z,2.80
2019-02-06T01:28:55.402Z,2.73
2019-02-06T01:31:59.347Z,2.77
2019-02-06T01:35:03.224Z,2.80
2019-02-06T01:38:07.464Z,2.85
2019-02-06T01:41:11.457Z,2.89
2019-02-06T01:44:15.262Z,2.89
2019-02-06T01:47:19.079Z,2.88
2019-02-06T01:50:23.013Z,2.84
2019-02-06T01:53:26.983Z,2.82
2019-02-06T01:56:30.977Z,2.82
2019-02-06T01:59:34.943Z,2.81
2019-02-06T02:02:38.820Z,2.80
2019-02-06T02:05:42.618Z,2.80
2019-02-06T02:08:57.061Z,2.75
2019-02-06T02:12:00.998Z,2.73
2019-02-06T02:15:07.086Z,2.83
2019-02-06T02:18:10.958Z,2.79
2019-02-06T02:21:14.878Z,2.76
2019-02-06T02:24:18.748Z,2.71
2019-02-06T02:27:22.580Z,2.68
2019-02-06T02:30:34.594Z,2.61
2019-02-06T02:33:38.492Z,2.53
2019-02-06T02:36:42.362Z,2.53
2019-02-06T02:39:46.368Z,2.48
2019-02-06T02:42:50.284Z,2.46
2019-02-06T02:45:54.358Z,2.46
2019-02-06T02:48:58.282Z,2.45
2019-02-06T02:52:02.068Z,2.49
2019-02-06T02:55:06.755Z,2.44
2019-02-06T02:58:10.810Z,2.44
2019-02-06T03:01:35.861Z,2.46
2019-02-06T03:04:43.940Z,2.52
2019-02-06T03:07:47.837Z,2.44
2019-02-06T03:10:51.653Z,2.49
2019-02-06T03:13:55.546Z,2.45
2019-02-06T03:17:03.057Z,2.47
2019-02-06T03:20:06.245Z,2.45
2019-02-06T03:23:10.219Z,2.46
2019-02-06T03:26:14.160Z,2.46
2019-02-06T03:29:18.077Z,2.46
2019-02-06T03:32:21.891Z,2.46
2019-02-06T03:35:25.702Z,2.43
2019-02-06T03:38:29.513Z,2.48
2019-02-06T03:41:33.331Z,2.46
2019-02-06T03:44:37.228Z,2.49
2019-02-06T03:47:41.211Z,2.48
2019-02-06T03:50:45.093Z,2.51
2019-02-06T03:53:48.981Z,2.58
2019-02-06T03:56:52.790Z,2.63
2019-02-06T03:59:56.613Z,2.60
2019-02-06T04:03:00.502Z,2.59
2019-02-06T04:06:04.504Z,2.65
2019-02-06T04:09:09.318Z,2.63
2019-02-06T04:12:13.215Z,2.63
2019-02-06T04:15:17.107Z,2.70
2019-02-06T04:18:20.916Z,2.71
2019-02-06T04:21:24.789Z,2.75
2019-02-06T04:24:28.648Z,2.76
2019-02-06T04:27:32.454Z,2.76
2019-02-06T04:30:36.479Z,2.83
2019-02-06T04:33:40.275Z,2.81
2019-02-06T04:36:44.136Z,2.82
2019-02-06T04:39:48.005Z,2.87
2019-02-06T04:42:51.815Z,2.86
2019-02-06T04:45:55.652Z,2.91
2019-02-06T04:48:59.526Z,2.87
2019-02-06T04:52:03.358Z,2.89
2019-02-06T04:55:07.858Z,2.85
2019-02-06T04:58:11.758Z,2.85
2019-02-06T05:01:15.578Z,2.87
2019-02-06T05:04:19.389Z,2.92
2019-02-06T05:07:23.303Z,2.90
2019-02-06T05:10:27.161Z,3.00
2019-02-06T05:13:30.976Z,2.96
2019-02-06T05:16:34.847Z,3.01
2019-02-06T05:19:38.667Z,3.00
2019-02-06T05:22:42.460Z,2.98
2019-02-06T05:25:46.342Z,3.00
2019-02-06T05:28:50.252Z,3.03
2019-02-06T05:31:54.173Z,3.05
2019-02-06T05:34:57.971Z,3.04
2019-02-06T05:38:01.958Z,3.07
2019-02-06T05:41:05.961Z,3.06
2019-02-06T05:44:09.844Z,3.10
2019-02-06T05:47:13.667Z,3.09
2019-02-06T05:50:17.816Z,3.11
2019-02-06T05:53:21.699Z,3.10
2019-02-06T05:56:25.575Z,3.08
2019-02-06T05:59:29.854Z,3.08
2019-02-06T06:02:33.819Z,3.15
2019-02-06T06:05:37.730Z,3.14
2019-02-06T06:08:41.916Z,3.23
2019-02-06T06:11:45.883Z,3.14
2019-02-06T06:14:49.701Z,3.22
2019-02-06T06:17:53.524Z,3.15
2019-02-06T06:20:57.429Z,3.19
2019-02-06T06:24:01.355Z,3.21
2019-02-06T06:27:05.325Z,3.25
2019-02-06T06:30:11.495Z,3.22
2019-02-06T06:33:15.292Z,3.27
2019-02-06T06:36:19.092Z,3.23
2019-02-06T06:39:22.904Z,3.27
2019-02-06T06:42:26.725Z,3.20
2019-02-06T06:45:30.618Z,3.25
2019-02-06T06:48:34.791Z,3.29
2019-02-06T06:51:38.655Z,3.24
2019-02-06T06:54:42.460Z,3.23
2019-02-06T06:57:46.292Z,3.21
2019-02-06T07:00:50.210Z,3.22
2019-02-06T07:03:54.021Z,3.25
2019-02-06T07:06:57.913Z,3.26
2019-02-06T07:10:01.786Z,3.29
2019-02-06T07:13:05.757Z,3.28
2019-02-06T07:16:09.703Z,3.30
2019-02-06T07:19:13.505Z,3.32
2019-02-06T07:22:17.463Z,3.27
2019-02-06T07:25:21.417Z,3.30
2019-02-06T07:28:25.242Z,3.31
2019-02-06T07:31:29.063Z,3.34
2019-02-06T07:34:32.867Z,3.31
2019-02-06T07:37:36.843Z,3.29
2019-02-06T07:40:40.632Z,3.29
2019-02-06T07:43:44.529Z,3.28
2019-02-06T07:46:48.434Z,3.33
2019-02-06T07:49:52.322Z,3.31
2019-02-06T07:52:56.313Z,3.28
2019-02-06T07:56:00.208Z,3.28
2019-02-06T07:59:04.139Z,3.29
2019-02-06T08:02:08.119Z,3.33
2019-02-06T08:05:14.070Z,3.37
2019-02-06T08:08:17.975Z,3.32
2019-02-06T08:11:21.765Z,3.26
2019-02-06T08:14:25.686Z,3.28
2019-02-06T08:17:29.557Z,3.28
2019-02-06T08:20:33.450Z,3.28
2019-02-06T08:23:37.262Z,3.32
2019-02-06T08:26:41.103Z,3.23
2019-02-06T08:29:44.904Z,3.21
2019-02-06T08:32:48.836Z,3.23
2019-02-06T08:35:52.726Z,3.25
2019-02-06T08:38:56.553Z,3.26
2019-02-06T08:42:00.475Z,3.28
2019-02-06T08:45:05.120Z,3.26
2019-02-06T08:48:09.034Z,3.30
2019-02-06T08:51:12.836Z,3.25
2019-02-06T08:54:16.673Z,3.26
2019-02-06T08:57:20.559Z,3.24
2019-02-06T09:00:27.217Z,3.28
2019-02-06T09:03:31.118Z,3.34
2019-02-06T09:06:35.029Z,3.30
2019-02-06T09:09:38.834Z,3.34
2019-02-06T09:12:42.734Z,3.35
2019-02-06T09:15:46.584Z,3.38
2019-02-06T09:18:50.493Z,3.36
2019-02-06T09:21:54.363Z,3.34
2019-02-06T09:24:58.128Z,3.38
2019-02-06T09:28:02.022Z,3.43
2019-02-06T09:31:05.983Z,3.59
2019-02-06T09:34:09.964Z,3.40
2019-02-06T09:37:13.850Z,3.42
2019-02-06T09:40:19.486Z,3.42
2019-02-06T09:43:23.327Z,3.43
2019-02-06T09:46:27.127Z,3.46
2019-02-06T09:49:30.945Z,3.44
2019-02-06T09:52:34.831Z,3.48
2019-02-06T09:55:38.908Z,3.47
2019-02-06T09:58:42.787Z,3.49
2019-02-06T10:01:46.795Z,3.54
2019-02-06T10:04:50.867Z,3.54
2019-02-06T10:07:54.845Z,3.54
2019-02-06T10:10:58.680Z,3.59
2019-02-06T10:14:02.643Z,3.54
2019-02-06T10:17:06.562Z,3.65
2019-02-06T10:20:13.288Z,3.55
2019-02-06T10:23:17.241Z,3.61
2019-02-06T10:26:21.027Z,3.63
2019-02-06T10:29:24.864Z,3.64
2019-02-06T10:32:28.674Z,3.65
2019-02-06T10:35:32.580Z,3.68
2019-02-06T10:38:36.478Z,3.66
2019-02-06T10:41:40.442Z,3.67
2019-02-06T10:44:44.424Z,3.69
2019-02-06T10:47:48.622Z,3.74
2019-02-06T10:50:53.834Z,3.67
2019-02-06T10:53:57.705Z,3.69
2019-02-06T10:57:01.520Z,3.66
2019-02-06T11:00:12.305Z,3.72
2019-02-06T11:03:16.208Z,3.74
2019-02-06T11:06:20.106Z,3.73
2019-02-06T11:09:23.991Z,3.73
2019-02-06T11:12:27.812Z,3.81
2019-02-06T11:15:31.900Z,3.90
2019-02-06T11:18:35.859Z,3.95
2019-02-06T11:21:39.824Z,3.92
2019-02-06T11:24:43.630Z,3.83
2019-02-06T11:27:47.564Z,3.90
2019-02-06T11:30:51.542Z,3.98
2019-02-06T11:33:55.432Z,4.04
2019-02-06T11:36:59.327Z,4.02
2019-02-06T11:40:03.226Z,4.05
2019-02-06T11:43:07.364Z,4.10
2019-02-06T11:46:11.227Z,4.11
2019-02-06T11:49:16.153Z,4.09
2019-02-06T11:52:19.980Z,4.13
2019-02-06T11:55:24.699Z,4.17
2019-02-06T11:58:28.645Z,4.25
2019-02-06T12:01:36.460Z,4.20
2019-02-06T12:04:40.343Z,4.20
2019-02-06T12:07:44.312Z,4.24
2019-02-06T12:10:48.479Z,4.25
2019-02-06T12:13:52.423Z,4.30
2019-02-06T12:16:56.322Z,4.25
2019-02-06T12:20:00.184Z,4.28
2019-02-06T12:23:04.405Z,4.31
2019-02-06T12:26:08.388Z,4.31
2019-02-06T12:29:12.281Z,4.33
2019-02-06T12:32:16.185Z,4.36
2019-02-06T12:35:20.036Z,4.31
2019-02-06T12:38:23.922Z,4.32
2019-02-06T12:41:27.758Z,4.35
2019-02-06T12:44:32.630Z,4.30
2019-02-06T12:47:36.455Z,4.34
2019-02-06T12:50:40.398Z,4.38
2019-02-06T12:53:44.345Z,4.36
2019-02-06T12:56:48.218Z,4.29
2019-02-06T12:59:52.024Z,4.29
2019-02-06T13:02:59.651Z,4.25
2019-02-06T13:06:01.559Z,4.27
2019-02-06T13:09:08.759Z,4.21
2019-02-06T13:12:12.573Z,4.33
2019-02-06T13:15:16.718Z,4.36
2019-02-06T13:18:20.567Z,4.39
2019-02-06T13:21:24.364Z,4.42
2019-02-06T13:24:28.252Z,4.51
2019-02-06T13:27:32.055Z,4.45
2019-02-06T13:30:36.633Z,4.54
2019-02-06T13:33:40.502Z,4.44
2019-02-06T13:36:44.331Z,4.45
2019-02-06T13:39:48.208Z,4.42
2019-02-06T13:42:52.228Z,4.45
2019-02-06T13:45:56.017Z,4.47
2019-02-06T13:48:59.905Z,4.37
2019-02-06T13:52:03.968Z,4.39
2019-02-06T13:55:09.627Z,4.40
2019-02-06T13:58:20.146Z,4.45
2019-02-06T14:01:25.811Z,4.52
2019-02-06T14:04:24.717Z,4.51
2019-02-06T14:07:28.682Z,4.50
2019-02-06T14:10:32.719Z,4.55
2019-02-06T14:13:36.986Z,4.45
2019-02-06T14:16:40.781Z,4.49
2019-02-06T14:19:44.734Z,4.54
2019-02-06T14:22:55.517Z,4.59
2019-02-06T14:26:20.661Z,4.54
2019-02-06T14:29:49.051Z,4.56
2019-02-06T14:33:55.586Z,4.53
2019-02-06T14:37:27.771Z,4.47
2019-02-06T14:41:08.304Z,4.52
2019-02-06T14:44:39.746Z,4.53
2019-02-06T14:48:10.685Z,4.52
2019-02-06T14:52:00.125Z,4.51
2019-02-06T14:55:17.659Z,4.52
2019-02-06T14:59:06.211Z,4.53
2019-02-06T15:02:53.255Z,4.57
2019-02-06T15:06:09.157Z,4.61
2019-02-06T15:09:55.781Z,4.66
2019-02-06T15:13:34.560Z,4.66
2019-02-06T15:17:21.533Z,4.58
2019-02-06T15:21:18.218Z,4.60
2019-02-06T15:24:40.156Z,4.62
2019-02-06T15:28:25.635Z,4.61
2019-02-06T15:32:02.812Z,4.66
2019-02-06T15:35:32.630Z,4.65
2019-02-06T15:38:46.893Z,4.57
2019-02-06T15:42:31.128Z,4.77
2019-02-06T15:45:58.012Z,4.77
2019-02-06T15:49:10.956Z,4.78
2019-02-06T15:53:05.307Z,4.82
2019-02-06T15:56:56.140Z,4.85
2019-02-06T16:00:19.188Z,4.97
2019-02-06T16:04:15.243Z,4.89
2019-02-06T16:07:50.478Z,4.87
2019-02-06T16:11:41.655Z,5.01
2019-02-06T16:15:07.616Z,4.94
2019-02-06T16:18:35.230Z,4.92
2019-02-06T16:22:44.679Z,5.05
2019-02-06T16:25:59.620Z,4.96
2019-02-06T16:29:38.914Z,4.93
2019-02-06T16:33:16.959Z,4.98
2019-02-06T16:36:43.523Z,4.83
2019-02-06T16:40:14.281Z,4.88
2019-02-06T16:43:38.004Z,4.98
2019-02-06T16:47:32.466Z,5.00
2019-02-06T16:50:57.110Z,5.12
2019-02-06T16:54:38.053Z,5.05
2019-02-06T16:58:23.257Z,4.96
2019-02-06T17:01:43.891Z,4.91
2019-02-06T17:05:31.262Z,5.01
2019-02-06T17:09:15.602Z,5.10
2019-02-06T17:12:31.974Z,5.18
2019-02-06T17:16:08.853Z,5.12
2019-02-06T17:19:56.749Z,5.16
2019-02-06T17:23:29.970Z,5.18
2019-02-06T17:26:53.563Z,5.18
2019-02-06T17:30:29.578Z,5.17
2019-02-06T17:34:00.107Z,4.93
2019-02-06T17:37:35.106Z,4.85
2019-02-06T17:41:00.186Z,4.86
2019-02-06T17:44:33.828Z,4.87
2019-02-06T17:48:10.065Z,4.83
2019-02-06T17:52:04.626Z,4.85
2019-02-06T17:55:19.405Z,4.88
2019-02-06T17:58:23.349Z,4.80
2019-02-06T18:01:37.032Z,4.82
2019-02-06T18:04:43.651Z,4.79
2019-02-06T18:07:47.531Z,4.85
2019-02-06T18:10:51.432Z,4.89
2019-02-06T18:13:55.330Z,4.85
2019-02-06T18:16:59.884Z,4.84
2019-02-06T18:20:05.242Z,4.81
2019-02-06T18:23:09.120Z,4.89
2019-02-06T18:26:13.085Z,4.89
2019-02-06T18:29:17.038Z,4.87
2019-02-06T18:32:21.012Z,4.81
2019-02-06T18:35:24.897Z,4.80
2019-02-06T18:38:28.712Z,4.86
2019-02-06T18:41:32.598Z,4.81
2019-02-06T18:44:36.434Z,4.83
2019-02-06T18:47:40.319Z,4.88
2019-02-06T18:50:44.313Z,4.98
2019-02-06T18:53:48.688Z,5.01
2019-02-06T18:56:52.606Z,4.91
2019-02-06T18:59:56.499Z,4.93
2019-02-06T19:03:00.570Z,4.97
2019-02-06T19:06:04.593Z,5.00
2019-02-06T19:09:13.841Z,5.09
2019-02-06T19:12:17.913Z,5.05
2019-02-06T19:15:21.820Z,4.96
2019-02-06T19:18:26.083Z,5.04
2019-02-06T19:21:29.983Z,4.97
2019-02-06T19:24:33.787Z,4.92
2019-02-06T19:27:38.036Z,4.91
2019-02-06T19:30:41.882Z,4.90
2019-02-06T19:33:45.704Z,4.92
2019-02-06T19:36:49.583Z,4.90
2019-02-06T19:39:53.525Z,4.94
2019-02-06T19:43:00.413Z,4.90
2019-02-06T19:46:03.077Z,4.82
2019-02-06T19:49:06.894Z,4.83
2019-02-06T19:52:10.826Z,4.90
2019-02-06T19:55:14.817Z,4.90
2019-02-06T19:58:18.637Z,4.85
2019-02-06T20:01:22.994Z,4.89
2019-02-06T20:04:26.838Z,4.79
2019-02-06T20:07:30.747Z,4.95
2019-02-06T20:10:37.210Z,4.90
2019-02-06T20:13:41.039Z,4.83
2019-02-06T20:16:44.850Z,4.79
2019-02-06T20:19:48.739Z,4.79
2019-02-06T20:22:52.675Z,4.79
2019-02-06T20:25:59.877Z,4.77
2019-02-06T20:29:04.346Z,4.85
2019-02-06T20:32:08.774Z,4.81
2019-02-06T20:35:13.889Z,4.91
2019-02-06T20:38:17.896Z,4.93
2019-02-06T20:41:21.940Z,4.86
2019-02-06T20:44:26.041Z,4.86
2019-02-06T20:47:29.818Z,4.76
2019-02-06T20:50:34.551Z,4.79
2019-02-06T20:53:38.777Z,4.76
2019-02-06T20:56:42.949Z,4.74
2019-02-06T20:59:47.107Z,4.81
2019-02-06T21:02:51.496Z,4.81
2019-02-06T21:05:55.333Z,4.75
2019-02-06T21:08:59.218Z,4.75
2019-02-06T21:12:03.572Z,4.74
2019-02-06T21:15:07.677Z,4.78
2019-02-06T21:18:11.508Z,4.75
2019-02-06T21:21:15.876Z,4.74
2019-02-06T21:24:20.014Z,4.76
2019-02-06T21:27:23.902Z,4.78
2019-02-06T21:30:31.534Z,4.84
2019-02-06T21:33:35.408Z,4.81
2019-02-06T21:36:39.247Z,4.80
2019-02-06T21:39:43.750Z,4.83
2019-02-06T21:42:47.929Z,4.84
2019-02-06T21:45:52.039Z,4.85
2019-02-06T21:48:56.342Z,4.93
2019-02-06T21:52:00.152Z,4.86
2019-02-06T21:55:04.663Z,4.90
2019-02-06T21:58:09.116Z,4.94
2019-02-06T22:01:12.933Z,4.91
2019-02-06T22:04:19.138Z,4.87
2019-02-06T22:07:22.954Z,4.88
2019-02-06T22:10:29.403Z,4.86
2019-02-06T22:13:33.213Z,4.84
2019-02-06T22:16:37.045Z,4.82
2019-02-06T22:19:41.093Z,4.87
2019-02-06T22:22:45.087Z,4.86
2019-02-06T22:25:48.904Z,4.83
2019-02-06T22:28:53.524Z,4.93
2019-02-06T22:31:57.344Z,4.85
2019-02-06T22:35:01.173Z,4.87
2019-02-06T22:38:05.332Z,4.92
2019-02-06T22:41:10.234Z,4.82
2019-02-06T22:44:14.133Z,4.85
2019-02-06T22:47:18.998Z,4.88
2019-02-06T22:50:24.534Z,4.82
2019-02-06T22:53:28.443Z,4.83
2019-02-06T22:56:32.362Z,4.87
2019-02-06T22:59:36.243Z,4.90
2019-02-06T23:02:40.060Z,4.86
2019-02-06T23:05:43.894Z,4.86
2019-02-06T23:08:47.848Z,4.87
2019-02-06T23:11:51.770Z,4.87
2019-02-06T23:14:55.584Z,4.94
2019-02-06T23:17:59.496Z,4.92
2019-02-06T23:21:03.461Z,4.90
2019-02-06T23:24:07.455Z,4.86
2019-02-06T23:27:11.374Z,4.93
2019-02-06T23:30:15.346Z,4.88
2019-02-06T23:33:19.498Z,4.90
2019-02-06T23:36:23.403Z,4.91
2019-02-06T23:39:27.309Z,4.90
2019-02-06T23:42:31.499Z,4.92
2019-02-06T23:45:35.487Z,4.90
2019-02-06T23:48:39.437Z,4.91
2019-02-06T23:51:43.633Z,4.93
2019-02-06T23:54:47.482Z,4.91
2019-02-06T23:57:51.360Z,4.93
